Time;durP1;ratioP1;P1;durP2;ratioP2;P2;SDS_P1;SDS_P2;PMS_P1;PMS_P2;Temp;Humidity;BMP_temperature;BMP_pressure;BME280_temperature;BME280_humidity;BME280_pressure;Samples;Min_cycle;Max_cycle;Signal;HPM_P1;HPM_P2
2022/03/02 06:28:26;;;;;;;55.03;34.42;;;;;;;-1.63;63.44;101264.47;2160754;27;20087;-89
2022/03/02 07:00:37;;;;;;;24.12;12.95;;;;;;;2.85;48.88;101237.50;960457;27;20407;-89
2022/03/02 07:03:47;;;;;;;24.12;10.73;;;;;;;2.81;46.68;101238.69;5424752;32;32980;-88
2022/03/02 07:06:51;;;;;;;19.17;8.57;;;;;;;2.49;47.87;101232.94;5432822;27;34011;-88
2022/03/02 07:09:56;;;;;;;20.90;9.20;;;;;;;2.39;46.41;101232.69;5450301;27;34817;-89
2022/03/02 07:13:01;;;;;;;24.35;10.45;;;;;;;2.34;47.23;101231.28;5387166;33;33486;-89
2022/03/02 07:16:05;;;;;;;28.87;11.32;;;;;;;2.39;47.89;101229.19;5400106;32;34005;-89
2022/03/02 07:23:36;;;;;;;17.98;8.90;;;;;;;2.67;46.63;101222.84;5440926;27;33779;-88
2022/03/02 07:26:49;;;;;;;14.75;7.75;;;;;;;2.69;45.44;101219.13;5433646;27;34085;-88
2022/03/02 07:30:29;;;;;;;16.80;7.60;;;;;;;2.67;45.75;101218.38;5453275;27;34125;-87
2022/03/02 07:33:41;;;;;;;16.80;7.45;;;;;;;3.00;44.95;101213.47;5363194;33;34221;-88
2022/03/02 07:36:45;;;;;;;19.12;7.50;;;;;;;3.16;43.77;101216.75;5363670;33;34660;-87
2022/03/02 07:39:49;;;;;;;13.90;6.93;;;;;;;3.28;43.25;101205.22;5364512;33;33836;-89
2022/03/02 07:42:52;;;;;;;16.50;7.15;;;;;;;3.47;42.03;101198.56;5393524;27;33829;-89
2022/03/02 07:46:04;;;;;;;12.52;6.80;;;;;;;3.63;41.58;101199.16;5423933;27;35387;-91
2022/03/02 07:49:07;;;;;;;12.45;7.28;;;;;;;3.84;40.95;101197.53;5432164;27;35366;-89
2022/03/02 07:56:15;;;;;;;14.00;6.28;;;;;;;4.43;39.00;101180.66;810860;31;20383;-89
2022/03/02 07:59:19;;;;;;;14.55;7.03;;;;;;;5.31;36.99;101171.06;5380710;27;32973;-89
2022/03/02 08:10:48;;;;;;;13.05;6.57;;;;;;;4.61;37.60;101169.53;2408299;28;20407;-89
2022/03/02 08:14:17;;;;;;;17.20;7.25;;;;;;;4.68;37.50;101168.06;5442638;27;33804;-90
2022/03/02 08:17:20;;;;;;;14.73;6.78;;;;;;;4.91;37.48;101171.59;5409613;27;34754;-89
2022/03/02 08:24:17;;;;;;;10.60;6.43;;;;;;;5.23;36.08;101172.56;5368160;33;34088;-89
2022/03/02 08:27:21;;;;;;;10.63;6.65;;;;;;;5.25;35.64;101166.22;5396381;27;34249;-90
2022/03/02 08:30:30;;;;;;;13.73;7.07;;;;;;;5.29;35.80;101160.50;5438252;27;33893;-91
2022/03/02 08:45:55;;;;;;;13.82;6.30;;;;;;;5.93;35.17;101153.50;2005319;27;20138;-90
2022/03/02 08:53:12;;;;;;;8.63;5.60;;;;;;;5.57;35.89;101143.09;955989;27;20516;-89
2022/03/02 08:56:15;;;;;;;11.43;5.95;;;;;;;5.68;34.71;101143.03;5397779;27;32624;-89
2022/03/02 08:59:18;;;;;;;13.48;6.82;;;;;;;5.75;35.29;101137.19;5366517;33;34228;-89
2022/03/02 09:02:24;;;;;;;14.68;6.32;;;;;;;5.63;35.52;101141.72;5364432;33;190683;-88
2022/03/02 09:05:28;;;;;;;9.95;6.57;;;;;;;5.75;35.30;101132.69;5368697;33;34843;-88
2022/03/02 09:08:32;;;;;;;11.00;6.12;;;;;;;5.73;35.30;101133.78;5375193;33;35030;-88
2022/03/02 09:11:37;;;;;;;10.52;6.43;;;;;;;5.65;36.12;101126.44;5387797;33;33679;-90
2022/03/02 09:14:41;;;;;;;16.27;6.97;;;;;;;5.66;35.94;101120.94;5387599;32;34560;-91
2022/03/02 09:17:44;;;;;;;13.60;6.43;;;;;;;5.78;35.51;101121.75;5379669;33;33539;-88
2022/03/02 09:20:56;;;;;;;12.45;6.65;;;;;;;6.00;35.08;101115.47;5385786;33;35075;-89
2022/03/02 09:23:59;;;;;;;12.33;6.53;;;;;;;6.08;34.39;101121.03;5386776;33;34374;-90
2022/03/02 09:27:04;;;;;;;11.95;6.72;;;;;;;6.17;34.35;101107.84;5382098;33;33953;-88
2022/03/02 09:50:33;;;;;;;14.60;7.50;;;;;;;6.93;32.01;101093.12;5392921;27;20135;-89
2022/03/02 09:53:54;;;;;;;12.90;7.07;;;;;;;7.01;32.73;101089.75;5370197;33;34372;-91
2022/03/02 10:01:31;;;;;;;10.90;6.20;;;;;;;7.20;30.74;101079.09;4792162;31;20480;-90
2022/03/02 10:04:35;;;;;;;10.40;5.93;;;;;;;6.93;30.13;101077.06;5383711;33;34262;-88
2022/03/02 10:07:44;;;;;;;12.90;6.72;;;;;;;6.51;30.80;101079.88;5399030;32;34534;-88
2022/03/02 10:10:48;;;;;;;11.93;6.90;;;;;;;6.68;30.74;101069.53;5406424;32;33750;-88
2022/03/02 10:13:57;;;;;;;10.02;6.85;;;;;;;6.96;30.80;101074.13;5402568;32;33822;-88
2022/03/02 10:17:01;;;;;;;14.23;7.15;;;;;;;7.10;30.49;101069.34;5411548;32;34522;-88
2022/03/02 10:20:25;;;;;;;12.55;5.95;;;;;;;7.09;30.50;101063.16;5407085;32;34862;-89
2022/03/02 10:23:41;;;;;;;13.77;6.60;;;;;;;6.93;29.87;101052.12;5400429;33;33523;-88
2022/03/02 10:26:51;;;;;;;9.10;6.03;;;;;;;7.01;30.47;101053.13;5400341;33;35255;-88
2022/03/02 10:30:09;;;;;;;16.58;7.20;;;;;;;7.20;30.25;101055.00;5400244;32;33666;-89
2022/03/02 10:33:24;;;;;;;11.80;6.95;;;;;;;7.26;30.40;101040.19;5390585;33;33847;-89
2022/03/02 10:36:30;;;;;;;11.75;6.80;;;;;;;7.36;30.34;101043.72;5398591;33;34299;-90
2022/03/02 10:39:52;;;;;;;11.05;6.62;;;;;;;7.60;29.70;101032.56;5401268;33;35258;-90
2022/03/02 10:43:03;;;;;;;10.90;6.00;;;;;;;7.67;29.80;101036.38;5402647;33;34049;-89
2022/03/02 10:46:13;;;;;;;12.50;6.80;;;;;;;7.76;29.68;101033.84;5404014;32;33358;-89
2022/03/02 10:49:21;;;;;;;11.32;6.60;;;;;;;7.31;29.62;101027.22;5403974;32;36602;-89
2022/03/02 10:52:26;;;;;;;12.48;7.07;;;;;;;7.45;29.45;101024.09;5405182;33;33837;-89
2022/03/02 10:55:32;;;;;;;14.98;6.82;;;;;;;7.42;29.53;101011.00;5398371;33;33011;-89
2022/03/02 10:58:38;;;;;;;12.63;6.62;;;;;;;7.76;31.05;101005.19;5395786;32;34144;-88
2022/03/02 11:01:44;;;;;;;11.32;6.53;;;;;;;7.74;29.56;100999.13;5402059;33;34097;-88
2022/03/02 11:04:48;;;;;;;12.50;6.43;;;;;;;7.66;28.77;100991.81;5405903;32;33692;-89
2022/03/02 11:07:51;;;;;;;10.68;6.57;;;;;;;7.99;29.95;100994.97;5397706;32;33935;-89
2022/03/02 11:10:55;;;;;;;9.30;6.22;;;;;;;8.11;28.60;100999.16;5402010;32;33951;-89
2022/03/02 11:13:59;;;;;;;12.30;6.87;;;;;;;8.52;29.02;100988.16;5432639;27;34738;-89
2022/03/02 11:17:13;;;;;;;9.90;6.05;;;;;;;8.70;27.46;100982.81;5427845;27;34157;-89
2022/03/02 11:20:17;;;;;;;13.52;6.50;;;;;;;9.05;27.37;100976.63;5407190;32;36528;-90
2022/03/02 11:23:23;;;;;;;13.55;6.12;;;;;;;9.38;26.32;100976.94;5421942;32;33603;-90
2022/03/02 11:26:29;;;;;;;10.48;6.55;;;;;;;9.23;28.08;100969.41;5416866;32;35397;-89
2022/03/02 11:29:32;;;;;;;11.18;6.20;;;;;;;9.12;26.93;100955.37;5416949;32;34205;-89
2022/03/02 11:32:40;;;;;;;9.57;5.93;;;;;;;9.54;26.91;100955.56;5415844;32;33935;-89
2022/03/02 11:35:45;;;;;;;10.30;5.75;;;;;;;9.74;25.68;100948.97;5415093;32;34060;-89
2022/03/02 11:38:54;;;;;;;8.90;5.78;;;;;;;9.79;25.55;100944.97;5410832;32;33632;-89
2022/03/02 11:42:00;;;;;;;13.90;6.10;;;;;;;10.41;25.73;100948.31;5413899;32;34170;-88
2022/03/02 11:45:06;;;;;;;9.95;6.47;;;;;;;10.77;25.93;100932.78;5412041;32;33558;-88
2022/03/02 11:48:13;;;;;;;12.32;6.18;;;;;;;11.38;24.43;100936.03;5412381;32;34322;-89
2022/03/02 11:51:21;;;;;;;9.68;5.55;;;;;;;12.14;23.40;100925.75;5412850;32;35450;-92
2022/03/02 11:54:37;;;;;;;10.52;5.80;;;;;;;12.69;22.72;100930.22;5414325;32;34984;-89
2022/03/02 11:57:50;;;;;;;10.65;5.93;;;;;;;13.18;21.66;100921.75;5398927;32;34454;-89
2022/03/02 12:01:04;;;;;;;8.30;5.10;;;;;;;13.93;21.17;100915.50;5416015;32;33863;-89
2022/03/02 12:04:09;;;;;;;8.73;5.43;;;;;;;14.26;20.64;100906.97;5412855;32;34020;-88
2022/03/02 12:07:11;;;;;;;7.35;5.25;;;;;;;14.54;20.71;100903.56;5415113;32;34093;-88
2022/03/02 12:10:24;;;;;;;7.35;5.15;;;;;;;14.71;20.26;100902.31;5404547;32;34157;-89
2022/03/02 12:13:27;;;;;;;10.20;6.28;;;;;;;15.84;19.28;100893.28;5395512;33;34009;-88
2022/03/02 12:16:38;;;;;;;9.05;5.80;;;;;;;16.92;17.82;100896.22;5405087;33;34019;-88
2022/03/02 12:19:40;;;;;;;9.80;5.93;;;;;;;16.82;17.90;100887.66;5397519;33;34013;-88
2022/03/02 12:22:47;;;;;;;8.70;5.57;;;;;;;18.13;16.89;100881.47;5398464;33;34090;-88
2022/03/02 12:25:54;;;;;;;;;;;;;;;18.17;18.82;100876.44;5398477;33;34122;-88
2022/03/02 12:29:14;;;;;;;8.13;5.20;;;;;;;19.33;16.06;100865.19;5407853;27;34294;-89
2022/03/02 12:32:43;;;;;;;9.57;6.03;;;;;;;19.22;16.55;100864.06;5399769;32;34698;-89
2022/03/02 12:35:46;;;;;;;11.15;5.95;;;;;;;19.98;15.61;100853.87;5415127;27;34803;-89
2022/03/02 12:38:51;;;;;;;9.82;6.07;;;;;;;20.68;15.34;100855.28;5408092;27;34433;-89
2022/03/02 12:41:54;;;;;;;9.25;5.72;;;;;;;20.91;14.48;100857.25;5408299;27;32850;-88
2022/03/02 12:45:00;;;;;;;9.73;5.85;;;;;;;20.76;15.26;100849.47;5362920;33;34902;-88
2022/03/02 12:48:07;;;;;;;9.48;6.00;;;;;;;20.11;14.96;100842.75;5361951;33;35468;-88
2022/03/02 12:51:28;;;;;;;9.90;6.70;;;;;;;21.84;14.07;100840.03;5633792;26;212474;-89
2022/03/02 12:54:33;;;;;;;11.12;6.37;;;;;;;21.84;14.07;100840.03;5549018;32;33591;-90
2022/03/02 12:57:38;;;;;;;9.60;5.85;;;;;;;20.64;14.68;100837.66;5547711;32;33776;-89
2022/03/02 13:00:41;;;;;;;7.93;6.15;;;;;;;20.53;14.74;100826.47;5548865;32;35547;-89
2022/03/02 13:03:51;;;;;;;9.18;6.22;;;;;;;19.82;16.18;100827.16;5573122;26;33416;-90
2022/03/02 13:07:09;;;;;;;9.95;6.50;;;;;;;20.50;15.11;100824.13;5554640;32;31664;-90
2022/03/02 13:10:13;;;;;;;9.20;6.20;;;;;;;18.10;16.53;100813.75;5556275;32;33847;-90
2022/03/02 13:13:36;;;;;;;12.35;7.05;;;;;;;16.28;18.43;100823.28;5564252;32;35126;-91
2022/03/02 13:16:39;;;;;;;13.88;7.50;;;;;;;14.61;20.59;100820.50;5587567;26;34120;-90
2022/03/02 13:20:04;;;;;;;13.82;6.87;;;;;;;13.26;21.96;100818.97;5627620;26;35277;-90
2022/03/02 13:23:28;;;;;;;11.75;7.05;;;;;;;12.99;23.35;100816.87;5615798;26;34717;-89
2022/03/02 13:26:32;;;;;;;13.23;8.02;;;;;;;12.28;23.95;100802.69;5598561;26;33930;-88
2022/03/02 13:29:55;;;;;;;11.90;7.62;;;;;;;11.06;25.63;100796.75;5562967;32;33566;-87
2022/03/02 13:33:03;;;;;;;15.30;7.53;;;;;;;10.71;25.62;100795.28;5561316;32;35300;-91
2022/03/02 13:36:43;;;;;;;15.43;8.00;;;;;;;10.85;26.45;100787.34;5561498;32;35591;-87
2022/03/02 13:39:46;;;;;;;12.55;7.65;;;;;;;10.82;26.03;100785.00;5562313;32;34255;-89
2022/03/02 13:42:50;;;;;;;13.93;7.65;;;;;;;10.79;26.02;100779.94;5565355;32;34056;-88
2022/03/02 13:45:59;;;;;;;13.27;7.55;;;;;;;10.37;27.34;100786.31;5562583;32;33889;-87
2022/03/02 13:49:02;;;;;;;13.10;7.77;;;;;;;10.08;27.26;100789.41;5559254;32;34181;-88
2022/03/02 13:52:05;;;;;;;16.62;8.25;;;;;;;9.89;27.28;100776.28;5560807;32;33868;-89
2022/03/02 13:55:11;;;;;;;13.88;7.60;;;;;;;9.83;27.83;100779.59;5562648;32;33414;-89
2022/03/02 13:58:35;;;;;;;11.35;7.20;;;;;;;9.70;27.80;100775.53;5565716;32;33836;-89
2022/03/02 14:01:38;;;;;;;14.40;8.45;;;;;;;9.39;28.56;100783.31;5558510;32;35220;-89
2022/03/02 14:04:46;;;;;;;13.82;7.80;;;;;;;9.29;28.81;100766.44;5554958;32;34830;-89
2022/03/02 14:07:53;;;;;;;10.48;6.68;;;;;;;8.97;28.60;100770.62;5568645;32;33988;-89
2022/03/02 14:10:56;;;;;;;12.18;7.45;;;;;;;8.95;29.07;100769.09;5554260;32;33876;-89
2022/03/02 14:14:01;;;;;;;13.90;6.90;;;;;;;8.92;29.71;100764.03;5555668;32;34229;-89
2022/03/02 14:17:09;;;;;;;15.23;7.20;;;;;;;8.83;29.17;100768.50;5561290;32;35006;-89
2022/03/02 14:20:13;;;;;;;13.13;7.82;;;;;;;8.83;29.98;100769.37;5567132;32;34070;-89
2022/03/02 14:23:18;;;;;;;11.80;7.70;;;;;;;8.58;29.58;100765.63;5566011;32;35359;-89
2022/03/02 14:26:22;;;;;;;13.48;7.55;;;;;;;8.49;29.64;100763.88;5568677;32;33944;-89
2022/03/02 14:29:32;;;;;;;11.63;7.35;;;;;;;8.40;29.99;100764.81;5562700;32;35214;-89
2022/03/02 14:32:44;;;;;;;14.13;7.10;;;;;;;8.37;30.07;100759.72;5558215;32;34708;-89
2022/03/02 14:35:58;;;;;;;14.40;8.53;;;;;;;8.24;30.64;100767.31;5595077;26;33944;31
2022/03/02 14:39:02;;;;;;;16.80;8.15;;;;;;;8.17;30.83;100759.88;5516323;32;33292;-90
2022/03/02 14:42:16;;;;;;;13.20;7.72;;;;;;;8.11;31.27;100755.13;5515111;32;34206;-89
2022/03/02 14:45:30;;;;;;;16.08;7.78;;;;;;;8.03;31.18;100752.34;5500894;32;34191;-87
2022/03/02 14:48:34;;;;;;;12.30;7.45;;;;;;;7.97;31.83;100752.13;5515653;32;33341;-88
2022/03/02 14:51:45;;;;;;;12.10;7.65;;;;;;;7.97;32.00;100752.13;5513777;32;34273;-88
2022/03/02 14:54:48;;;;;;;13.75;8.18;;;;;;;7.97;32.49;100752.97;5516255;32;34548;-88
2022/03/02 14:57:52;;;;;;;14.02;8.18;;;;;;;7.89;32.44;100759.06;5513458;32;33726;-87
2022/03/02 15:01:15;;;;;;;15.68;9.35;;;;;;;7.84;32.37;100761.38;5515412;32;33880;-86
2022/03/02 15:04:18;;;;;;;13.52;8.07;;;;;;;7.71;32.94;100750.16;5515099;32;35023;-87
2022/03/02 15:07:42;;;;;;;15.75;8.88;;;;;;;7.68;33.08;100740.59;5519057;32;33729;-87
2022/03/02 15:10:44;;;;;;;16.02;9.02;;;;;;;7.62;32.91;100751.06;5518027;32;33891;-89
2022/03/02 15:17:21;;;;;;;12.20;8.05;;;;;;;7.53;33.54;100746.63;5512681;32;33977;-87
2022/03/02 15:20:25;;;;;;;11.48;7.87;;;;;;;7.38;34.49;100744.41;5522763;26;33959;-88
2022/03/02 15:24:10;;;;;;;16.00;8.75;;;;;;;7.35;33.53;100739.38;5484021;27;35268;31
2022/03/02 15:27:14;;;;;;;16.23;9.50;;;;;;;7.32;33.55;100742.34;5508101;32;33418;-89
2022/03/02 15:30:17;;;;;;;17.92;8.32;;;;;;;7.17;33.96;100739.31;5514899;32;33892;-89
2022/03/02 15:33:42;;;;;;;15.57;8.98;;;;;;;7.05;34.17;100732.44;5541415;26;33717;-88
2022/03/02 15:37:07;;;;;;;14.82;8.35;;;;;;;6.99;34.56;100731.19;5541332;26;33114;-88
2022/03/02 15:40:19;;;;;;;15.07;8.52;;;;;;;6.93;34.92;100733.59;5492980;32;33742;-88
2022/03/02 15:43:21;;;;;;;16.00;8.65;;;;;;;6.82;35.02;100729.28;5536944;27;33579;-88
2022/03/02 15:46:24;;;;;;;18.15;8.65;;;;;;;6.74;35.30;100729.16;5493321;32;34506;-88
2022/03/02 15:53:39;;;;;;;18.08;9.38;;;;;;;6.59;35.72;100734.09;3874674;30;20088;-88
2022/03/02 15:56:52;;;;;;;17.00;8.98;;;;;;;6.49;36.33;100731.44;5518231;32;35317;-88
2022/03/02 16:00:09;;;;;;;16.45;8.82;;;;;;;6.42;36.59;100727.66;5511630;32;34102;-88
2022/03/02 16:03:19;;;;;;;18.60;10.18;;;;;;;6.35;36.65;100731.87;5512030;32;34394;-88
2022/03/02 16:06:23;;;;;;;17.60;10.45;;;;;;;6.29;37.58;100740.47;5510815;32;33510;-88
2022/03/02 16:09:25;;;;;;;17.25;9.05;;;;;;;6.29;37.13;100745.81;5512666;32;34603;-88
2022/03/02 16:12:44;;;;;;;20.60;8.63;;;;;;;6.15;37.67;100738.22;5511577;32;33818;-88
2022/03/02 16:15:52;;;;;;;19.73;8.77;;;;;;;6.08;37.81;100740.59;5498261;32;34419;-88
2022/03/02 16:19:09;;;;;;;18.12;8.73;;;;;;;5.96;38.63;100734.53;5491355;32;33911;-88
2022/03/02 16:22:11;;;;;;;18.00;10.60;;;;;;;5.85;38.27;100732.81;5491800;32;34752;-88
2022/03/02 16:25:24;;;;;;;18.30;10.52;;;;;;;5.82;38.43;100737.56;5492313;32;33475;-88
2022/03/02 16:28:34;;;;;;;17.52;9.57;;;;;;;5.68;38.93;100737.00;5491940;32;34662;-88
2022/03/02 16:31:37;;;;;;;18.35;11.40;;;;;;;5.60;39.01;100744.84;5493073;32;33878;-88
2022/03/02 16:34:40;;;;;;;17.52;10.15;;;;;;;5.50;39.53;100738.66;5522677;26;33813;-89
2022/03/02 16:37:45;;;;;;;18.20;10.13;;;;;;;5.43;39.47;100734.81;5525319;32;34712;-88
2022/03/02 16:40:49;;;;;;;21.95;10.98;;;;;;;5.25;40.08;100744.47;5528096;32;34511;-89
2022/03/02 16:43:53;;;;;;;23.85;11.43;;;;;;;5.29;40.27;100740.53;5530975;32;33847;-88
2022/03/02 16:46:56;;;;;;;21.30;9.68;;;;;;;5.21;39.98;100749.22;5530149;32;34538;-89
2022/03/02 16:49:59;;;;;;;16.02;9.05;;;;;;;5.07;40.45;100746.91;5530126;32;33843;-89
2022/03/02 16:53:03;;;;;;;22.55;10.50;;;;;;;5.05;40.94;100744.34;5530458;32;33730;-89
2022/03/02 16:56:36;;;;;;;20.50;9.60;;;;;;;4.96;40.66;100743.34;5321823;30;20092;-89
2022/03/02 16:59:39;;;;;;;18.83;8.75;;;;;;;4.92;40.22;100738.41;5545497;26;34227;-88
2022/03/02 17:02:44;;;;;;;16.95;8.90;;;;;;;4.94;39.74;100742.63;5535401;32;31706;-88
2022/03/02 17:05:49;;;;;;;14.87;8.85;;;;;;;4.90;39.71;100740.34;5532499;32;35166;-89
2022/03/02 17:08:52;;;;;;;16.90;8.23;;;;;;;4.74;39.59;100732.84;5530647;32;34017;-88
2022/03/02 17:11:55;;;;;;;15.32;8.32;;;;;;;4.78;39.30;100735.09;5569146;26;33658;-89
2022/03/02 17:14:59;;;;;;;17.52;8.68;;;;;;;4.69;38.76;100735.87;5530801;32;33881;-89
2022/03/02 17:18:03;;;;;;;16.37;8.45;;;;;;;4.62;38.67;100731.19;5533728;32;33466;-89
2022/03/02 17:21:06;;;;;;;18.50;8.00;;;;;;;4.55;38.44;100731.72;5532417;32;33989;-89
2022/03/02 17:24:09;;;;;;;16.80;8.32;;;;;;;4.62;37.75;100723.19;5534812;32;34664;-89
2022/03/02 17:27:16;;;;;;;10.63;7.30;;;;;;;4.64;37.79;100724.75;5532997;32;34044;-89
2022/03/02 17:30:21;;;;;;;15.65;8.05;;;;;;;4.53;37.90;100724.81;5532642;32;34738;-89
2022/03/02 17:33:24;;;;;;;14.18;7.85;;;;;;;4.53;37.21;100724.81;5552266;26;33628;-89
2022/03/02 17:36:29;;;;;;;14.20;7.57;;;;;;;4.53;37.35;100725.69;5532437;32;33753;-89
2022/03/02 17:39:32;;;;;;;11.75;7.28;;;;;;;4.57;36.83;100718.28;5582239;26;33293;-89
2022/03/02 17:42:37;;;;;;;14.85;7.70;;;;;;;4.54;37.04;100729.19;5564868;26;34272;-89
2022/03/02 17:54:13;;;;;;;14.87;8.15;;;;;;;4.32;37.09;100731.00;981463;26;20434;-89
2022/03/02 17:57:19;;;;;;;14.75;7.40;;;;;;;4.37;36.69;100727.12;5511758;32;33990;-89
2022/03/02 18:00:22;;;;;;;14.43;7.65;;;;;;;4.24;37.46;100732.59;5515729;32;33579;-89
2022/03/02 18:03:26;;;;;;;16.35;8.35;;;;;;;4.26;37.13;100730.66;5517571;32;34008;-89
2022/03/02 18:39:37;;;;;;;15.32;10.98;;;;;;;3.68;38.62;100728.31;4114694;26;20119;-89
2022/03/02 18:42:41;;;;;;;24.37;11.02;;;;;;;3.73;38.60;100728.81;5535820;32;34876;-88
2022/03/02 18:45:49;;;;;;;17.90;9.27;;;;;;;3.80;38.69;100724.69;5533245;32;33982;-89
2022/03/02 18:48:53;;;;;;;19.55;9.77;;;;;;;3.79;38.63;100725.63;5583475;26;34112;-88
2022/03/02 18:56:25;;;;;;;17.62;9.23;;;;;;;3.82;38.62;100722.72;2307631;26;20063;-87
2022/03/02 18:59:28;;;;;;;16.77;9.40;;;;;;;3.91;38.20;100726.44;5492839;32;33353;-88
2022/03/02 19:02:32;;;;;;;18.58;9.43;;;;;;;3.90;38.22;100718.59;5493418;32;34208;-88
2022/03/02 19:05:35;;;;;;;14.85;9.35;;;;;;;3.91;38.48;100722.94;5518581;26;35006;-88
2022/03/02 19:08:38;;;;;;;17.58;9.77;;;;;;;3.98;38.40;100721.44;5585103;26;33757;-88
2022/03/02 19:11:41;;;;;;;19.25;10.27;;;;;;;3.97;38.31;100717.94;5582440;26;34750;-88
2022/03/02 19:14:44;;;;;;;22.60;10.27;;;;;;;3.84;38.71;100722.59;5536183;32;34944;-88
2022/03/02 19:17:49;;;;;;;18.40;10.52;;;;;;;3.87;38.67;100715.22;5589958;26;34503;-88
2022/03/02 19:20:53;;;;;;;19.33;9.52;;;;;;;3.84;38.60;100719.94;5535890;32;34152;-88
2022/03/02 19:24:02;;;;;;;18.12;9.27;;;;;;;3.67;39.65;100713.34;5583767;26;33749;-88
2022/03/02 19:27:08;;;;;;;20.35;9.85;;;;;;;3.61;39.26;100711.16;5596443;26;34125;-88
2022/03/02 19:30:16;;;;;;;20.02;9.85;;;;;;;3.67;39.46;100702.69;5572411;26;34243;-88
2022/03/02 19:33:21;;;;;;;19.05;9.43;;;;;;;3.62;39.49;100699.53;5530314;26;35227;-88
2022/03/02 19:36:24;;;;;;;17.50;8.88;;;;;;;3.57;39.53;100691.09;5499385;32;33870;-88
2022/03/02 19:42:49;;;;;;;16.33;8.98;;;;;;;3.44;40.51;100699.22;5531625;26;35292;-88
2022/03/02 19:45:52;;;;;;;16.62;8.90;;;;;;;3.37;40.77;100692.72;5563807;26;34638;-88
2022/03/02 19:48:57;;;;;;;27.80;10.23;;;;;;;3.39;40.04;100688.97;5542378;26;34672;-88
2022/03/02 19:52:00;;;;;;;18.12;9.75;;;;;;;3.32;40.16;100693.06;5559922;26;35004;-88
2022/03/02 19:55:04;;;;;;;19.70;9.23;;;;;;;3.37;39.81;100687.41;5511994;32;34152;-88
2022/03/02 19:58:08;;;;;;;18.62;9.27;;;;;;;3.39;40.11;100688.09;5523830;27;33673;-88
2022/03/02 20:01:11;;;;;;;18.73;8.68;;;;;;;3.37;39.63;100693.56;5580111;26;34085;-88
2022/03/02 20:04:15;;;;;;;18.27;9.70;;;;;;;3.18;41.36;100688.00;5558019;26;33924;-88
2022/03/02 20:07:18;;;;;;;16.62;8.80;;;;;;;3.11;40.74;100681.50;5558413;26;34207;-89
2022/03/02 20:10:22;;;;;;;17.70;9.00;;;;;;;3.09;40.48;100686.09;5559261;26;35365;-88
2022/03/02 20:13:26;;;;;;;17.35;8.95;;;;;;;3.05;40.40;100685.50;5557708;26;35380;-89
2022/03/02 20:24:53;;;;;;;15.32;8.65;;;;;;;2.76;42.03;100690.44;1367538;26;20392;-88
2022/03/02 20:28:08;;;;;;;19.25;9.80;;;;;;;2.68;42.38;100693.69;5498522;32;32071;-88
2022/03/02 20:31:11;;;;;;;19.85;9.85;;;;;;;2.64;41.91;100696.72;5569320;26;33584;-88
2022/03/02 20:34:17;;;;;;;19.40;9.60;;;;;;;2.65;41.63;100693.94;5581409;26;33631;-90
2022/03/02 20:37:22;;;;;;;19.08;9.50;;;;;;;2.58;41.50;100694.53;5561806;26;35143;-88
2022/03/02 20:41:00;;;;;;;19.37;9.90;;;;;;;2.48;41.97;100702.34;5534414;26;35136;31
2022/03/02 20:44:34;;;;;;;23.12;10.80;;;;;;;2.39;42.76;100692.44;5589586;26;33960;-89
2022/03/02 20:47:37;;;;;;;19.98;9.90;;;;;;;2.25;43.65;100696.12;5541004;32;33974;-90
2022/03/02 20:50:42;;;;;;;21.12;9.95;;;;;;;2.20;44.66;100693.00;5543352;32;34049;-88
2022/03/02 20:53:45;;;;;;;20.65;10.82;;;;;;;2.11;44.32;100696.34;5531387;32;34549;-88
2022/03/02 20:56:49;;;;;;;17.45;9.60;;;;;;;2.06;45.15;100686.06;5571413;26;34536;-88
2022/03/02 20:59:52;;;;;;;22.15;10.85;;;;;;;2.01;45.27;100694.37;5555057;32;33297;-89
2022/03/02 21:02:54;;;;;;;23.02;11.38;;;;;;;1.93;45.84;100691.47;5557914;26;34593;-88
2022/03/02 21:06:18;;;;;;;22.58;11.00;;;;;;;1.87;45.07;100691.06;5665210;26;33992;-89
2022/03/02 21:09:21;;;;;;;20.60;11.40;;;;;;;1.82;45.58;100694.06;5553622;32;34112;-88
2022/03/02 21:12:24;;;;;;;19.55;11.10;;;;;;;1.78;45.33;100687.28;5553200;32;34346;-89
2022/03/02 21:15:28;;;;;;;19.33;10.38;;;;;;;1.80;47.03;100695.97;5558453;26;33863;-89
2022/03/02 21:18:31;;;;;;;23.30;11.00;;;;;;;1.70;47.37;100689.69;5593496;26;34242;-90
2022/03/02 21:25:37;;;;;;;22.40;10.85;;;;;;;1.57;47.71;100676.44;4070051;30;20061;-89
2022/03/02 21:32:47;;;;;;;22.98;12.35;;;;;;;1.56;48.64;100680.91;4067664;30;20484;-89
2022/03/02 21:35:50;;;;;;;24.50;11.98;;;;;;;1.44;47.80;100676.50;5531887;32;34702;-89
2022/03/02 21:38:55;;;;;;;25.20;12.07;;;;;;;1.41;47.74;100674.06;5531432;32;34504;-89
2022/03/02 21:41:59;;;;;;;21.67;11.57;;;;;;;1.43;47.17;100672.13;5564974;26;33587;-88
2022/03/02 21:45:03;;;;;;;21.27;11.25;;;;;;;1.41;47.03;100676.72;5611775;26;33681;-88
2022/03/02 21:48:07;;;;;;;22.05;11.65;;;;;;;1.40;48.05;100688.28;5587386;26;34076;-88
2022/03/02 21:51:10;;;;;;;23.83;12.88;;;;;;;1.36;48.57;100692.97;5540744;32;34026;-88
2022/03/02 21:54:13;;;;;;;22.02;12.25;;;;;;;1.38;48.19;100700.81;5537571;32;35338;-88
2022/03/02 21:57:16;;;;;;;26.35;13.77;;;;;;;1.51;47.62;100696.31;5590018;26;33539;-88
2022/03/02 22:00:19;;;;;;;24.80;13.62;;;;;;;1.65;47.09;100691.81;5552214;26;33664;-88
2022/03/02 22:03:22;;;;;;;25.60;12.73;;;;;;;1.59;47.20;100688.63;5590266;26;35117;-88
2022/03/02 22:06:26;;;;;;;28.20;13.80;;;;;;;1.58;47.45;100688.78;5584409;26;35057;-89
2022/03/02 22:09:29;;;;;;;24.42;12.65;;;;;;;1.56;47.26;100693.34;5531466;32;33984;-88
2022/03/02 22:12:33;;;;;;;24.65;13.07;;;;;;;1.50;48.27;100694.63;5531420;32;34766;-88
2022/03/02 22:15:40;;;;;;;26.95;13.35;;;;;;;1.44;48.16;100697.72;5591892;26;35130;-89
2022/03/02 22:18:43;;;;;;;27.13;13.48;;;;;;;1.37;50.10;100685.84;5551075;32;34050;-89
2022/03/02 22:21:46;;;;;;;24.87;13.38;;;;;;;1.30;48.81;100690.75;5550710;32;34037;-89
2022/03/02 22:24:51;;;;;;;27.30;14.50;;;;;;;1.26;48.72;100691.94;5537568;26;34031;-88
2022/03/02 22:27:54;;;;;;;24.75;13.80;;;;;;;1.21;48.44;100687.94;5560991;26;35360;-89
2022/03/02 22:30:59;;;;;;;27.00;13.85;;;;;;;1.12;48.90;100684.97;5569721;26;35024;-89
2022/03/02 22:34:37;;;;;;;24.17;12.90;;;;;;;1.08;50.63;100688.81;5518450;26;34241;-87
2022/03/02 22:37:40;;;;;;;27.23;15.05;;;;;;;1.02;50.39;100683.91;5530570;32;33953;-88
2022/03/02 22:40:42;;;;;;;25.02;13.65;;;;;;;1.03;51.56;100682.97;5531430;32;34257;-88
2022/03/02 22:43:45;;;;;;;25.23;14.70;;;;;;;0.93;51.78;100681.09;5531052;32;34735;-88
2022/03/02 22:46:48;;;;;;;27.58;14.05;;;;;;;0.87;50.58;100679.72;5538299;26;33892;-88
2022/03/02 22:49:51;;;;;;;25.35;13.77;;;;;;;0.87;51.77;100677.06;5548257;26;33759;-88
2022/03/02 22:52:54;;;;;;;27.73;15.55;;;;;;;0.80;53.64;100686.41;5581305;26;33527;-87
2022/03/02 22:55:57;;;;;;;23.00;12.95;;;;;;;0.78;52.54;100680.34;5594002;26;33759;-88
2022/03/02 22:59:00;;;;;;;24.35;13.27;;;;;;;0.76;52.90;100677.84;5588630;26;34132;-88
2022/03/02 23:02:12;;;;;;;26.98;13.60;;;;;;;0.71;51.18;100671.16;5579391;26;34089;-88
2022/03/02 23:15:20;;;;;;;27.70;15.55;;;;;;;0.59;55.27;100668.41;5559888;26;35191;-88
2022/03/02 23:18:23;;;;;;;26.70;14.68;;;;;;;0.48;56.34;100673.59;5593640;26;34304;-88
2022/03/02 23:21:26;;;;;;;25.83;14.13;;;;;;;0.35;55.29;100678.03;5566327;26;33756;-89
2022/03/02 23:24:29;;;;;;;27.05;15.38;;;;;;;0.32;57.46;100673.81;5592487;26;35181;-88
2022/03/02 23:27:33;;;;;;;31.85;16.35;;;;;;;0.34;54.10;100666.59;5563566;26;34542;-88
2022/03/02 23:30:36;;;;;;;30.70;15.95;;;;;;;0.34;56.28;100666.59;5577439;26;33932;-88
2022/03/02 23:33:40;;;;;;;25.77;13.93;;;;;;;0.39;56.34;100666.28;5581850;26;35325;-89
2022/03/02 23:37:23;;;;;;;29.95;15.60;;;;;;;0.36;54.99;100672.62;5541060;26;35319;31
2022/03/02 23:40:54;;;;;;;31.30;17.98;;;;;;;0.75;53.09;100677.94;5545915;26;33349;-88
2022/03/02 23:43:57;;;;;;;33.30;19.20;;;;;;;0.97;52.47;100670.16;5524922;26;33095;-89
2022/03/02 23:47:00;;;;;;;32.55;20.05;;;;;;;0.95;53.29;100671.22;5510349;32;31970;-90
2022/03/02 23:50:05;;;;;;;31.48;19.12;;;;;;;0.87;53.20;100669.09;5525197;26;34487;-88
2022/03/02 23:56:56;;;;;;;31.02;19.37;;;;;;;0.92;53.39;100674.09;5567836;26;33901;-88